Iron Mtn, Michigan
Current Conditions -  °F | °C
As of 6:47 PM on Monday 22 Dec 2014 (Local Time) from KIMT Reporting Station
Light Snow Light Snow  
Wind Chill: 25°   Ceiling: 3900
Heat Index: 32°   Visibility: 2mi
Dew Point: 29°   Wind: 8mph
Humidity: 88%   Direction: 100°E
Pressure: 29.82"   Gusts: NA
Location:  45.9025°N, 88.0366°W
Report Text: KIMT 230047Z AUTO 10007KT 2SM -SN BR OVC039 00/M02 A2982 RMK AO2 SNB37 P0000 T00001017
Loading
Personal Weather Stations






























Interactive Weather Map New forecast layout! Learn more

10-Day Weather Forecast

Advertisements
Track Severe Weather on mobile